Terminal Aerodrome Forecast
Issued by NWS Louisville, KY

Home | Current Version | Previous Version | Text Only | Print | Product List | Glossary On
Versions: 1 2 3 4 5 6 7 8 9 10 11 12 13 14 15
624
FTUS43 KLMK 232320
TAFBWG
TAF
KBWG 232320Z 2400/2424 32008KT P6SM -RA BKN015 OVC100
     FM240300 27006KT P6SM BKN010
     FM240500 29005KT P6SM BKN020
     FM240700 30004KT P6SM SCT045
     FM241700 30008KT P6SM SCT080=

USA.gov is the U.S. government's official web portal to all federal, state and local government web resources and services.